createdAt,value
2017-10-14T00:00:05.833Z,99.99
2017-10-14T00:00:46.355Z,99.95
2017-10-14T00:01:26.767Z,99.85
2017-10-14T00:02:07.241Z,99.66
2017-10-14T00:02:47.671Z,99.95
2017-10-14T00:03:28.128Z,99.57
2017-10-14T00:04:08.569Z,99.99
2017-10-14T00:04:49.237Z,99.99
2017-10-14T00:05:29.556Z,99.99
2017-10-14T00:06:09.929Z,99.99
2017-10-14T00:06:50.413Z,99.99
2017-10-14T00:07:30.857Z,99.99
2017-10-14T00:08:11.330Z,99.99
2017-10-14T00:08:51.823Z,99.99
2017-10-14T00:09:32.357Z,99.99
2017-10-14T00:10:12.839Z,99.99
2017-10-14T00:10:53.351Z,99.99
2017-10-14T00:11:33.897Z,99.99
2017-10-14T00:12:14.375Z,99.99
2017-10-14T00:12:54.841Z,99.76
2017-10-14T00:13:35.302Z,99.19
2017-10-14T00:14:15.790Z,99.66
2017-10-14T00:14:56.316Z,99.99
2017-10-14T00:15:36.716Z,99.99
2017-10-14T00:16:17.215Z,99.95
2017-10-14T00:16:57.613Z,99.85
2017-10-14T00:17:38.113Z,99.99
2017-10-14T00:18:18.539Z,99.99
2017-10-14T00:18:59.146Z,99.99
2017-10-14T00:19:39.599Z,99.99
2017-10-14T00:20:20.039Z,99.99
2017-10-14T00:21:00.469Z,99.85
2017-10-14T00:21:40.944Z,99.99
2017-10-14T00:22:21.366Z,99.99
2017-10-14T00:23:01.802Z,99.99
2017-10-14T00:23:42.305Z,99.99
2017-10-14T00:24:22.744Z,99.99
2017-10-14T00:25:03.264Z,99.99
2017-10-14T00:25:43.822Z,99.99
2017-10-14T00:26:24.210Z,99.99
2017-10-14T00:27:04.734Z,99.99
2017-10-14T00:27:45.193Z,99.99
2017-10-14T00:28:25.621Z,99.99
2017-10-14T00:29:07.018Z,99.76
2017-10-14T00:29:47.431Z,99.66
2017-10-14T00:30:28.015Z,99.99
2017-10-14T00:31:08.466Z,99.95
2017-10-14T00:31:48.987Z,99.99
2017-10-14T00:32:29.465Z,99.71
2017-10-14T00:33:09.941Z,99.76
2017-10-14T00:33:50.356Z,99.9
2017-10-14T00:34:30.871Z,99.99
2017-10-14T00:35:11.299Z,99.85
2017-10-14T00:35:51.845Z,99.99
2017-10-14T00:36:32.280Z,99.99
2017-10-14T00:37:12.734Z,99.66
2017-10-14T00:37:53.196Z,99.99
2017-10-14T00:38:33.668Z,99.99
2017-10-14T00:39:14.137Z,99.99
2017-10-14T00:39:54.594Z,99.99
2017-10-14T00:40:35.038Z,99.99
2017-10-14T00:41:15.452Z,99.99
2017-10-14T00:41:55.916Z,99.76
2017-10-14T00:42:36.438Z,99.95
2017-10-14T00:43:16.948Z,99.99
2017-10-14T00:43:57.433Z,99.99
2017-10-14T00:44:37.848Z,99.99
2017-10-14T00:45:18.359Z,99.99
2017-10-14T00:45:58.799Z,99.99
2017-10-14T00:46:39.183Z,99.99
2017-10-14T00:47:19.703Z,99.99
2017-10-14T00:48:00.137Z,99.99
2017-10-14T00:48:40.627Z,99.99
2017-10-14T00:49:21.076Z,99.99
2017-10-14T00:50:01.511Z,99.99
2017-10-14T00:50:42.011Z,99.99
2017-10-14T00:51:22.446Z,99.99
2017-10-14T00:52:02.988Z,99.99
2017-10-14T00:52:43.393Z,99.99
2017-10-14T00:53:23.869Z,99.99
2017-10-14T00:54:04.352Z,99.99
2017-10-14T00:54:44.790Z,99.99
2017-10-14T00:55:25.278Z,99.99
2017-10-14T00:56:05.694Z,99.99
2017-10-14T00:56:46.151Z,99.99
2017-10-14T00:57:26.647Z,99.99
2017-10-14T00:58:07.074Z,99.99
2017-10-14T00:58:47.590Z,99.99
2017-10-14T00:59:28.103Z,99.99
2017-10-14T01:00:08.552Z,99.99
2017-10-14T01:00:49.213Z,99.99
2017-10-14T01:01:29.684Z,99.99
2017-10-14T01:02:10.143Z,99.99
2017-10-14T01:04:04.219Z,99.99
2017-10-14T01:04:44.598Z,99.8
2017-10-14T01:05:25.052Z,99.9
2017-10-14T01:06:05.564Z,99.99
2017-10-14T01:06:46.040Z,99.71
2017-10-14T01:07:26.495Z,99.71
2017-10-14T01:08:06.946Z,99.99
2017-10-14T01:08:47.511Z,99.99
2017-10-14T01:09:28.058Z,99.99
2017-10-14T01:10:08.536Z,99.99
2017-10-14T01:10:49.019Z,99.99
2017-10-14T01:11:29.581Z,99.99
2017-10-14T01:12:09.996Z,99.99
2017-10-14T01:12:50.561Z,99.99
2017-10-14T01:13:31.249Z,99.99
2017-10-14T01:14:11.721Z,99.99
2017-10-14T01:14:52.210Z,99.99
2017-10-14T01:15:32.644Z,99.99
2017-10-14T01:16:13.166Z,99.99
2017-10-14T01:16:53.579Z,99.99
2017-10-14T01:17:34.014Z,99.99
2017-10-14T01:18:14.586Z,99.99
2017-10-14T01:20:13.022Z,99.99
2017-10-14T01:20:53.390Z,99.99
2017-10-14T01:21:33.823Z,99.99
2017-10-14T01:22:14.320Z,99.99
2017-10-14T01:22:54.770Z,99.99
2017-10-14T01:23:35.254Z,99.99
2017-10-14T01:24:15.761Z,99.99
2017-10-14T01:24:56.247Z,99.99
2017-10-14T01:25:36.819Z,99.99
2017-10-14T01:26:17.237Z,99.99
2017-10-14T01:26:57.672Z,99.99
2017-10-14T01:27:38.118Z,99.99
2017-10-14T01:28:18.669Z,99.99
2017-10-14T01:28:59.115Z,99.99
2017-10-14T01:29:39.597Z,99.99
2017-10-14T01:30:20.066Z,99.99
2017-10-14T01:31:00.586Z,99.99
2017-10-14T01:31:41.034Z,99.99
2017-10-14T01:32:21.489Z,99.99
2017-10-14T01:33:01.948Z,99.99
2017-10-14T01:33:42.413Z,99.99
2017-10-14T01:34:22.802Z,99.99
2017-10-14T01:35:03.324Z,99.99
2017-10-14T01:35:43.722Z,99.99
2017-10-14T01:36:24.181Z,99.99
2017-10-14T01:37:04.629Z,99.99
2017-10-14T01:37:45.079Z,99.99
2017-10-14T01:38:25.544Z,99.99
2017-10-14T01:39:05.993Z,99.99
2017-10-14T01:39:46.477Z,99.99
2017-10-14T01:40:26.920Z,99.99
2017-10-14T01:41:07.442Z,99.99
2017-10-14T01:41:47.814Z,99.99
2017-10-14T01:42:28.495Z,99.99
2017-10-14T01:43:08.817Z,99.76
2017-10-14T01:43:49.252Z,99.99
2017-10-14T01:44:29.673Z,99.99
2017-10-14T01:45:10.145Z,99.85
2017-10-14T01:45:50.620Z,99.99
2017-10-14T01:46:31.096Z,99.99
2017-10-14T01:47:11.664Z,99.99
2017-10-14T01:47:52.102Z,99.99
2017-10-14T01:48:32.552Z,99.99
2017-10-14T01:49:12.993Z,99.99
2017-10-14T01:49:53.530Z,99.95
2017-10-14T01:50:33.974Z,99.99
2017-10-14T01:51:14.456Z,99.99
2017-10-14T01:51:54.913Z,99.99
2017-10-14T01:52:35.350Z,99.85
2017-10-14T01:53:15.834Z,99.99
2017-10-14T01:53:56.396Z,99.99
2017-10-14T01:54:36.855Z,99.99
2017-10-14T01:55:17.303Z,99.99
2017-10-14T01:55:57.776Z,99.99
2017-10-14T01:56:38.261Z,99.99
2017-10-14T01:57:18.699Z,99.99
2017-10-14T01:57:59.238Z,99.99
2017-10-14T01:58:39.739Z,99.99
2017-10-14T01:59:20.249Z,99.99
2017-10-14T02:00:00.723Z,99.99
2017-10-14T02:00:41.278Z,99.99
2017-10-14T02:01:21.723Z,99.99
2017-10-14T02:02:02.238Z,99.99
2017-10-14T02:02:42.707Z,99.99
2017-10-14T02:03:23.131Z,99.99
2017-10-14T02:04:03.670Z,99.99
2017-10-14T02:04:44.135Z,99.99
2017-10-14T02:05:24.579Z,99.99
2017-10-14T02:06:05.034Z,99.95
2017-10-14T02:06:45.519Z,99.99
2017-10-14T02:07:26.048Z,99.99
2017-10-14T02:08:06.507Z,99.99
2017-10-14T02:08:46.924Z,99.99
2017-10-14T02:09:27.357Z,99.99
2017-10-14T02:10:07.815Z,99.99
2017-10-14T02:10:48.319Z,99.99
2017-10-14T02:11:28.751Z,99.99
2017-10-14T02:12:09.251Z,99.99
2017-10-14T02:12:49.706Z,99.99
2017-10-14T02:13:30.287Z,99.99
2017-10-14T02:14:10.744Z,99.99
2017-10-14T02:14:51.283Z,99.99
2017-10-14T02:15:31.737Z,99.99
2017-10-14T02:16:12.127Z,99.99
2017-10-14T02:16:52.601Z,99.99
2017-10-14T02:17:33.131Z,99.99
2017-10-14T02:18:13.619Z,99.99
2017-10-14T02:18:54.121Z,99.99
2017-10-14T02:20:52.478Z,99.99
2017-10-14T02:21:32.838Z,99.8
2017-10-14T02:22:13.371Z,99.99
2017-10-14T02:22:53.841Z,99.99
2017-10-14T02:23:34.357Z,99.99
2017-10-14T02:24:14.954Z,99.99
2017-10-14T02:24:55.221Z,99.99
2017-10-14T02:25:35.680Z,99.99
2017-10-14T02:26:16.142Z,99.99
2017-10-14T02:26:56.690Z,99.99
2017-10-14T02:27:37.092Z,99.99
2017-10-14T02:28:17.514Z,99.99
2017-10-14T02:28:58.035Z,99.99
2017-10-14T02:29:38.430Z,99.99
2017-10-14T02:30:18.941Z,99.99
2017-10-14T02:30:59.426Z,99.99
2017-10-14T02:31:39.981Z,99.99
2017-10-14T02:32:20.417Z,99.99
2017-10-14T02:33:00.845Z,99.99
2017-10-14T02:33:41.290Z,99.99
2017-10-14T02:34:21.747Z,99.99
2017-10-14T02:35:02.193Z,99.99
2017-10-14T02:35:42.720Z,99.99
2017-10-14T02:36:23.351Z,99.99
2017-10-14T02:37:04.378Z,99.99
2017-10-14T02:37:44.837Z,99.99
2017-10-14T02:38:25.376Z,99.99
2017-10-14T02:39:06.030Z,99.99
2017-10-14T02:39:46.535Z,99.99
2017-10-14T02:40:26.978Z,99.99
2017-10-14T02:41:07.428Z,99.99
2017-10-14T02:41:47.895Z,99.99
2017-10-14T02:42:28.399Z,99.99
2017-10-14T02:43:08.868Z,99.99
2017-10-14T02:43:49.279Z,99.99
2017-10-14T02:44:29.730Z,99.99
2017-10-14T02:45:10.187Z,99.99
2017-10-14T02:46:58.333Z,99.99
2017-10-14T02:47:38.656Z,99.99
2017-10-14T02:48:19.160Z,99.99
2017-10-14T02:48:59.669Z,99.99
2017-10-14T02:49:40.139Z,99.99
2017-10-14T02:50:20.542Z,99.99
2017-10-14T02:51:01.164Z,99.99
2017-10-14T02:51:41.565Z,99.99
2017-10-14T02:52:22.069Z,99.99
2017-10-14T02:53:02.522Z,99.99
2017-10-14T02:53:42.946Z,99.99
2017-10-14T02:54:23.365Z,99.99
2017-10-14T02:55:03.763Z,99.99
2017-10-14T02:55:44.256Z,99.99
2017-10-14T02:56:24.721Z,99.99
2017-10-14T02:57:05.204Z,99.99
2017-10-14T02:57:45.617Z,99.99
2017-10-14T02:58:26.185Z,99.99
2017-10-14T02:59:06.681Z,99.99
2017-10-14T02:59:47.168Z,99.99
2017-10-14T03:00:27.681Z,99.99
2017-10-14T03:01:08.114Z,99.99
2017-10-14T03:01:48.531Z,99.99
2017-10-14T03:02:29.063Z,99.99
2017-10-14T03:04:27.997Z,99.99
2017-10-14T03:05:08.039Z,99.99
2017-10-14T03:05:48.616Z,99.99
2017-10-14T03:06:29.273Z,99.99
2017-10-14T03:07:09.625Z,99.99
2017-10-14T03:07:50.110Z,99.99
2017-10-14T03:08:30.610Z,99.99
2017-10-14T03:09:11.403Z,99.99
2017-10-14T03:11:09.190Z,99.99
2017-10-14T03:11:49.555Z,99.99
2017-10-14T03:12:29.969Z,99.99
2017-10-14T03:13:10.479Z,99.99
2017-10-14T03:13:50.927Z,99.99
2017-10-14T03:14:31.395Z,99.99
2017-10-14T03:15:11.863Z,99.99
2017-10-14T03:15:52.348Z,99.99
2017-10-14T03:16:32.849Z,99.99
2017-10-14T03:17:13.225Z,99.99
2017-10-14T03:17:53.704Z,99.99
2017-10-14T03:18:34.166Z,99.99
2017-10-14T03:19:14.662Z,99.99
2017-10-14T03:19:55.071Z,99.99
2017-10-14T03:20:35.505Z,99.99
2017-10-14T03:21:15.995Z,99.99
2017-10-14T03:21:56.434Z,99.99
2017-10-14T03:22:37.003Z,99.99
2017-10-14T03:23:17.446Z,99.99
2017-10-14T03:23:57.916Z,99.99
2017-10-14T03:24:38.330Z,99.99
2017-10-14T03:25:18.821Z,99.99
2017-10-14T03:25:59.239Z,99.99
2017-10-14T03:26:39.680Z,99.99
2017-10-14T03:27:20.149Z,99.99
2017-10-14T03:28:00.581Z,99.99
2017-10-14T03:28:41.078Z,99.99
2017-10-14T03:29:21.456Z,99.99
2017-10-14T03:30:01.947Z,99.99
2017-10-14T03:30:42.449Z,99.99
2017-10-14T03:31:22.846Z,99.99
2017-10-14T03:33:41.403Z,99.99
2017-10-14T03:34:21.791Z,99.99
2017-10-14T03:35:02.256Z,99.99
2017-10-14T03:35:42.706Z,99.99
2017-10-14T03:36:23.183Z,99.99
2017-10-14T03:37:03.654Z,99.99
2017-10-14T03:37:44.082Z,99.99
2017-10-14T03:38:24.558Z,99.99
2017-10-14T03:39:05.040Z,99.99
2017-10-14T03:39:45.536Z,99.99
2017-10-14T03:40:25.930Z,99.99
2017-10-14T03:41:06.390Z,99.99
2017-10-14T03:41:46.848Z,99.99
2017-10-14T03:42:27.320Z,99.99
2017-10-14T03:43:07.832Z,99.99
2017-10-14T03:43:48.322Z,99.99
2017-10-14T03:44:28.821Z,99.99
2017-10-14T03:45:09.297Z,99.99
2017-10-14T03:45:49.769Z,99.99
2017-10-14T03:46:30.299Z,99.99
2017-10-14T03:47:10.692Z,99.99
2017-10-14T03:47:51.150Z,99.99
2017-10-14T03:48:31.621Z,99.99
2017-10-14T03:49:12.086Z,99.99
2017-10-14T03:49:52.582Z,99.99
2017-10-14T03:50:33.021Z,99.99
2017-10-14T03:51:13.496Z,99.99
2017-10-14T03:51:53.913Z,99.99
2017-10-14T03:52:34.574Z,99.99
2017-10-14T03:53:15.133Z,99.99
2017-10-14T03:53:55.500Z,99.99
2017-10-14T03:54:35.974Z,99.99
2017-10-14T03:55:16.458Z,99.99
2017-10-14T03:55:56.916Z,99.95
2017-10-14T03:56:37.349Z,99.99
2017-10-14T03:57:17.898Z,99.99
2017-10-14T03:57:58.321Z,99.99
2017-10-14T03:58:38.738Z,99.99
2017-10-14T03:59:19.174Z,99.99
2017-10-14T03:59:59.681Z,99.99
2017-10-14T04:00:40.353Z,99.99
2017-10-14T04:01:20.772Z,99.99
2017-10-14T04:02:01.259Z,99.99
2017-10-14T04:02:41.661Z,99.99
2017-10-14T04:03:22.156Z,99.99
2017-10-14T04:04:02.567Z,99.99
2017-10-14T04:04:43.134Z,99.99
2017-10-14T04:05:23.646Z,99.99
2017-10-14T04:06:04.142Z,99.99
2017-10-14T04:06:44.710Z,99.99
2017-10-14T04:07:25.151Z,99.99
2017-10-14T04:08:05.694Z,99.99
2017-10-14T04:08:46.157Z,99.99
2017-10-14T04:09:26.630Z,99.99
2017-10-14T04:10:07.089Z,99.99
2017-10-14T04:10:47.560Z,99.99
2017-10-14T04:11:28.023Z,99.99
2017-10-14T04:12:08.465Z,99.99
2017-10-14T04:12:49.000Z,99.99
2017-10-14T04:13:29.471Z,99.99
2017-10-14T04:14:09.939Z,99.99
2017-10-14T04:14:50.504Z,99.99
2017-10-14T04:15:31.050Z,99.99
2017-10-14T04:16:11.500Z,99.99
2017-10-14T04:16:51.970Z,99.99
2017-10-14T04:17:32.415Z,99.99
2017-10-14T04:18:12.865Z,99.99
2017-10-14T04:18:53.340Z,99.99
2017-10-14T04:21:11.909Z,99.99
2017-10-14T04:21:52.320Z,99.99
2017-10-14T04:22:32.767Z,99.99
2017-10-14T04:23:13.284Z,99.99
2017-10-14T04:23:53.692Z,99.99
2017-10-14T04:24:34.241Z,99.99
2017-10-14T04:25:14.870Z,99.99
2017-10-14T04:25:55.316Z,99.99
2017-10-14T04:26:35.724Z,99.99
2017-10-14T04:27:16.351Z,99.99
2017-10-14T04:27:56.828Z,99.99
2017-10-14T04:28:37.306Z,99.99
2017-10-14T04:29:17.781Z,99.99
2017-10-14T04:29:58.208Z,99.99
2017-10-14T04:30:38.697Z,99.99
2017-10-14T04:31:19.141Z,99.99
2017-10-14T04:31:59.584Z,99.99
2017-10-14T04:32:40.206Z,99.99
2017-10-14T04:33:20.603Z,99.99
2017-10-14T04:34:01.163Z,99.99
2017-10-14T04:34:41.530Z,99.99
2017-10-14T04:35:22.037Z,99.99
2017-10-14T04:36:02.450Z,99.99
2017-10-14T04:36:42.928Z,99.99
2017-10-14T04:37:23.562Z,99.99
2017-10-14T04:38:03.995Z,99.99
2017-10-14T04:38:44.373Z,99.99
2017-10-14T04:39:25.640Z,99.99
2017-10-14T04:40:06.066Z,99.99
2017-10-14T04:40:46.544Z,99.99
2017-10-14T04:41:26.974Z,99.99
2017-10-14T04:42:07.384Z,99.99
2017-10-14T04:42:47.849Z,99.99
2017-10-14T04:43:28.302Z,99.99
2017-10-14T04:44:08.748Z,99.99
2017-10-14T04:44:49.211Z,99.99
2017-10-14T04:45:29.669Z,99.99
2017-10-14T04:46:10.198Z,99.99
2017-10-14T04:46:50.603Z,99.99
2017-10-14T04:47:31.049Z,99.99
2017-10-14T04:48:11.675Z,99.99
2017-10-14T04:48:52.019Z,99.99
2017-10-14T04:49:32.472Z,99.99
2017-10-14T04:50:12.889Z,99.99
2017-10-14T04:50:53.577Z,99.99
2017-10-14T04:51:34.026Z,99.99
2017-10-14T04:52:14.551Z,99.99
2017-10-14T04:52:54.945Z,99.99
2017-10-14T04:53:35.378Z,99.99
2017-10-14T04:54:15.868Z,99.99
2017-10-14T04:54:56.297Z,99.99
2017-10-14T04:55:36.866Z,99.99
2017-10-14T04:56:17.366Z,99.99
2017-10-14T04:56:57.822Z,99.99
2017-10-14T04:57:38.254Z,99.99
2017-10-14T04:58:18.784Z,99.99
2017-10-14T04:58:59.312Z,99.99
2017-10-14T04:59:39.768Z,99.99
2017-10-14T05:00:20.254Z,99.99
2017-10-14T05:01:00.773Z,99.99
2017-10-14T05:01:41.190Z,99.99
2017-10-14T05:02:21.718Z,99.99
2017-10-14T05:03:02.207Z,99.99
2017-10-14T05:03:42.587Z,99.99
2017-10-14T05:04:23.019Z,99.99
2017-10-14T05:05:03.485Z,99.99
2017-10-14T05:07:21.965Z,99.99
2017-10-14T05:08:02.400Z,99.99
2017-10-14T05:08:42.848Z,99.99
2017-10-14T05:09:23.373Z,99.99
2017-10-14T05:10:03.894Z,99.99
2017-10-14T05:10:44.355Z,99.99
2017-10-14T05:11:24.803Z,99.99
2017-10-14T05:12:05.312Z,99.99
2017-10-14T05:12:45.716Z,99.99
2017-10-14T05:13:26.208Z,99.99
2017-10-14T05:14:06.640Z,99.99
2017-10-14T05:14:47.204Z,99.99
2017-10-14T05:15:27.648Z,99.99
2017-10-14T05:16:08.205Z,99.99
2017-10-14T05:16:48.745Z,99.99
2017-10-14T05:17:29.232Z,99.99
2017-10-14T05:18:09.690Z,99.99
2017-10-14T05:18:50.180Z,99.99
2017-10-14T05:19:30.656Z,99.99
2017-10-14T05:20:11.077Z,99.99
2017-10-14T05:20:51.639Z,99.99
2017-10-14T05:21:32.361Z,99.99
2017-10-14T05:23:19.879Z,99.99
2017-10-14T05:24:00.302Z,99.99
2017-10-14T05:24:40.755Z,99.99
2017-10-14T05:25:21.221Z,99.99
2017-10-14T05:26:01.681Z,99.99
2017-10-14T05:26:42.142Z,99.99
2017-10-14T05:27:22.600Z,99.99
2017-10-14T05:28:03.086Z,99.99
2017-10-14T05:28:43.536Z,99.99
2017-10-14T05:29:23.954Z,99.99
2017-10-14T05:30:04.528Z,99.99
2017-10-14T05:31:52.846Z,99.99
2017-10-14T05:32:33.217Z,99.99
2017-10-14T05:33:13.679Z,99.99
2017-10-14T05:33:54.135Z,99.99
2017-10-14T05:34:34.569Z,99.99
2017-10-14T05:35:14.971Z,99.99
2017-10-14T05:35:55.580Z,99.99
2017-10-14T05:36:36.085Z,99.99
2017-10-14T05:37:16.670Z,99.99
2017-10-14T05:37:57.261Z,99.99
2017-10-14T05:38:37.919Z,99.99
2017-10-14T05:39:18.526Z,99.99
2017-10-14T05:39:59.108Z,99.99
2017-10-14T05:40:39.796Z,99.99
2017-10-14T05:41:20.499Z,99.99
2017-10-14T05:42:01.061Z,99.99
2017-10-14T05:42:41.694Z,99.99
2017-10-14T05:43:22.267Z,99.99
2017-10-14T05:44:02.949Z,99.99
2017-10-14T05:44:43.575Z,99.99
2017-10-14T05:45:24.159Z,99.99
2017-10-14T05:46:04.837Z,99.99
2017-10-14T05:46:45.467Z,99.99
2017-10-14T05:47:25.969Z,99.99
2017-10-14T05:48:06.616Z,99.99
2017-10-14T05:48:47.315Z,99.99
2017-10-14T05:49:27.674Z,99.99
2017-10-14T05:50:08.139Z,99.99
2017-10-14T05:50:48.598Z,99.99
2017-10-14T05:51:29.115Z,99.99
2017-10-14T05:52:09.500Z,99.99
2017-10-14T05:52:49.959Z,99.99
2017-10-14T05:53:30.507Z,99.99
2017-10-14T05:54:11.175Z,99.99
2017-10-14T05:54:51.702Z,99.99
2017-10-14T05:55:32.222Z,99.99
2017-10-14T05:56:12.666Z,99.99
2017-10-14T05:56:53.276Z,99.99
2017-10-14T05:57:33.667Z,99.99
2017-10-14T05:58:14.184Z,99.99
2017-10-14T05:58:54.641Z,99.99
2017-10-14T05:59:35.062Z,99.99
2017-10-14T06:00:15.502Z,99.99
2017-10-14T06:00:56.040Z,99.99
2017-10-14T06:01:36.695Z,99.99
2017-10-14T06:02:17.135Z,99.99
2017-10-14T06:02:57.551Z,99.99
2017-10-14T06:03:38.059Z,99.99
2017-10-14T06:04:18.580Z,99.99
2017-10-14T06:04:59.077Z,99.99
2017-10-14T06:05:39.495Z,99.99
2017-10-14T06:06:20.003Z,99.99
2017-10-14T06:07:00.497Z,99.99
2017-10-14T06:07:40.963Z,99.99
2017-10-14T06:08:21.697Z,99.99
2017-10-14T06:09:02.037Z,99.65
2017-10-14T06:09:42.429Z,99.99
2017-10-14T06:10:22.890Z,99.99
2017-10-14T06:11:03.432Z,99.99
2017-10-14T06:11:43.896Z,99.99
2017-10-14T06:12:24.378Z,99.99
2017-10-14T06:13:04.843Z,99.99
2017-10-14T06:13:45.385Z,99.99
2017-10-14T06:14:25.831Z,99.99
2017-10-14T06:15:06.347Z,99.99
2017-10-14T06:15:46.843Z,99.99
2017-10-14T06:16:27.386Z,99.99
2017-10-14T06:17:07.898Z,99.99
2017-10-14T06:17:48.399Z,99.99
2017-10-14T06:18:28.861Z,99.99
2017-10-14T06:19:09.365Z,99.99
2017-10-14T06:19:49.827Z,99.99
2017-10-14T06:20:30.276Z,99.99
2017-10-14T06:21:10.745Z,99.99
2017-10-14T06:21:51.192Z,99.89
2017-10-14T06:22:31.671Z,99.89
2017-10-14T06:23:12.193Z,99.99
2017-10-14T06:23:52.641Z,99.99
2017-10-14T06:24:33.123Z,99.89
2017-10-14T06:25:13.514Z,99.89
2017-10-14T06:25:54.009Z,99.89
2017-10-14T06:26:34.508Z,99.99
2017-10-14T06:27:14.949Z,99.99
2017-10-14T06:27:55.438Z,99.99
2017-10-14T06:28:36.148Z,99.99
2017-10-14T06:29:16.595Z,99.99
2017-10-14T06:29:57.251Z,99.99
2017-10-14T06:30:37.725Z,99.99
2017-10-14T06:31:18.183Z,99.99
2017-10-14T06:31:58.773Z,99.99
2017-10-14T06:32:39.243Z,99.99
2017-10-14T06:33:19.709Z,99.99
2017-10-14T06:34:00.327Z,99.99
2017-10-14T06:34:40.773Z,99.99
2017-10-14T06:35:21.295Z,99.99
2017-10-14T06:36:01.744Z,99.99
2017-10-14T06:36:42.192Z,99.22
2017-10-14T06:37:22.825Z,99.6
2017-10-14T06:38:03.300Z,99.6
2017-10-14T06:38:43.735Z,99.6
2017-10-14T06:39:24.147Z,99.75
2017-10-14T06:40:04.663Z,98.8
2017-10-14T06:40:45.053Z,99.18
2017-10-14T06:41:25.571Z,99.37
2017-10-14T06:42:05.999Z,98.99
2017-10-14T06:42:46.435Z,99.37
2017-10-14T06:43:26.940Z,99.37
2017-10-14T06:44:07.394Z,99.75
2017-10-14T06:44:47.874Z,99.66
2017-10-14T06:45:28.353Z,99.75
2017-10-14T06:46:08.798Z,99.75
2017-10-14T06:46:49.419Z,98.99
2017-10-14T06:47:29.922Z,98.99
2017-10-14T06:48:10.405Z,99.08
2017-10-14T06:48:50.896Z,99.18
2017-10-14T06:49:31.305Z,99.75
2017-10-14T06:50:11.958Z,99.75
2017-10-14T06:50:52.310Z,99.99
2017-10-14T06:51:32.689Z,99.56
2017-10-14T06:52:13.289Z,99.85
2017-10-14T06:52:53.768Z,99.99
2017-10-14T06:53:34.257Z,99.95
2017-10-14T06:54:14.763Z,99.99
2017-10-14T06:54:55.236Z,99.75
2017-10-14T06:55:35.721Z,99.66
2017-10-14T06:56:16.269Z,99.56
2017-10-14T06:56:56.663Z,99.95
2017-10-14T06:57:37.131Z,99.56
2017-10-14T06:58:17.572Z,99.75
2017-10-14T06:58:58.079Z,99.08
2017-10-14T06:59:38.555Z,98.61
2017-10-14T07:00:19.009Z,99.04
2017-10-14T07:00:59.408Z,99.23
2017-10-14T07:01:39.871Z,99.13
2017-10-14T07:02:20.381Z,99.9
2017-10-14T07:03:00.787Z,99.04
2017-10-14T07:03:41.241Z,98.56
2017-10-14T07:04:21.710Z,97.99
2017-10-14T07:05:02.202Z,99.04
2017-10-14T07:05:42.702Z,99.13
2017-10-14T07:06:23.186Z,99.23
2017-10-14T07:07:03.797Z,98.18
2017-10-14T07:07:44.354Z,98.56
2017-10-14T07:08:24.816Z,99.04
2017-10-14T07:09:05.213Z,98.66
2017-10-14T07:09:45.781Z,98.37
2017-10-14T07:10:26.246Z,97.85
2017-10-14T07:11:06.754Z,98.42
2017-10-14T07:11:47.259Z,97.66
2017-10-14T07:12:27.785Z,98.03
2017-10-14T07:13:08.250Z,97.37
2017-10-14T07:13:48.777Z,97.37
2017-10-14T07:14:29.218Z,97.47
2017-10-14T07:15:09.704Z,96.8
2017-10-14T07:15:50.276Z,97.66
2017-10-14T07:16:30.731Z,97.85
2017-10-14T07:17:11.138Z,97.56
2017-10-14T07:17:51.582Z,98.42
2017-10-14T07:18:32.101Z,97.94
2017-10-14T07:19:12.658Z,98.03
2017-10-14T07:19:53.051Z,98.32
2017-10-14T07:20:33.610Z,97.94
2017-10-14T07:21:14.049Z,97.66
2017-10-14T07:21:54.510Z,97.99
2017-10-14T07:22:34.998Z,97.52
2017-10-14T07:23:15.532Z,97.13
2017-10-14T07:23:55.998Z,98.08
2017-10-14T07:24:36.370Z,98.28
2017-10-14T07:25:16.878Z,97.42
2017-10-14T07:25:57.392Z,97.61
2017-10-14T07:26:37.923Z,96.75
2017-10-14T07:27:18.478Z,97.23
2017-10-14T07:29:17.627Z,96.66
2017-10-14T07:29:58.120Z,97.03
2017-10-14T07:30:38.635Z,96.7
2017-10-14T07:31:19.179Z,97.23
2017-10-14T07:31:59.670Z,96.66
2017-10-14T07:32:40.100Z,96.89
2017-10-14T07:33:20.624Z,96.99
2017-10-14T07:34:01.105Z,96.32
2017-10-14T07:34:41.587Z,96.61
2017-10-14T07:35:22.077Z,96.7
2017-10-14T07:36:02.669Z,96.42
2017-10-14T07:36:43.166Z,96.7
2017-10-14T07:37:23.673Z,96.7
2017-10-14T07:39:21.903Z,96.61
2017-10-14T07:40:02.263Z,96.22
2017-10-14T07:40:42.688Z,96.61
2017-10-14T07:41:23.178Z,96.51
2017-10-14T07:42:03.655Z,96.13
2017-10-14T07:42:44.327Z,95.94
2017-10-14T07:43:24.796Z,96.22
2017-10-14T07:44:05.246Z,95.65
2017-10-14T07:44:45.862Z,95.17
2017-10-14T07:45:26.344Z,95.22
2017-10-14T07:46:06.840Z,95.03
2017-10-14T07:46:47.271Z,94.93
2017-10-14T07:47:27.744Z,94.46
2017-10-14T07:48:08.236Z,94.17
2017-10-14T07:48:48.770Z,93.98
2017-10-14T07:49:29.240Z,94.31
2017-10-14T07:50:09.685Z,93.55
2017-10-14T07:50:50.127Z,93.16
2017-10-14T07:51:30.612Z,93.26
2017-10-14T07:52:11.156Z,93.84
2017-10-14T07:52:51.765Z,93.07
2017-10-14T07:53:32.188Z,92.97
2017-10-14T07:54:12.728Z,92.3
2017-10-14T07:54:53.289Z,92.4
2017-10-14T07:55:33.839Z,92.78
2017-10-14T07:56:14.323Z,92.49
2017-10-14T07:56:54.839Z,92.3
2017-10-14T07:57:35.319Z,92.97
2017-10-14T07:58:15.777Z,92.4
2017-10-14T07:58:56.308Z,92.54
2017-10-14T07:59:36.957Z,92.35
2017-10-14T08:00:17.473Z,91.92
2017-10-14T08:00:57.986Z,92.25
2017-10-14T08:01:38.431Z,92.44
2017-10-14T08:02:18.864Z,91.58
2017-10-14T08:02:59.358Z,91.3
2017-10-14T08:03:39.822Z,91.39
2017-10-14T08:04:20.300Z,91.2
2017-10-14T08:05:00.789Z,91.3
2017-10-14T08:05:41.255Z,91.39
2017-10-14T08:06:21.694Z,90.91
2017-10-14T08:07:02.172Z,91.05
2017-10-14T08:07:42.820Z,90.44
2017-10-14T08:08:23.246Z,90.44
2017-10-14T08:09:03.959Z,90.53
2017-10-14T08:09:44.378Z,91.39
2017-10-14T08:10:24.920Z,91.25
2017-10-14T08:11:05.329Z,90.29
2017-10-14T08:11:45.865Z,89.9
2017-10-14T08:12:26.328Z,90.09
2017-10-14T08:13:06.798Z,90.09
2017-10-14T08:13:47.256Z,90.58
2017-10-14T08:14:27.759Z,89.9
2017-10-14T08:15:08.249Z,89.52
2017-10-14T08:15:48.769Z,89.9
2017-10-14T08:16:29.193Z,89.43
2017-10-14T08:17:09.710Z,89.18
2017-10-14T08:17:50.266Z,89.28
2017-10-14T08:18:30.669Z,89.04
2017-10-14T08:19:11.176Z,89.18
2017-10-14T08:19:51.675Z,88.32
2017-10-14T08:20:32.199Z,88.9
2017-10-14T08:21:12.598Z,88.99
2017-10-14T08:21:53.206Z,88.03
2017-10-14T08:22:33.623Z,87.37
2017-10-14T08:23:14.121Z,87.98
2017-10-14T08:23:54.542Z,87.21
2017-10-14T08:24:35.106Z,87.31
2017-10-14T08:25:15.704Z,86.35
2017-10-14T08:25:56.227Z,87.02
2017-10-14T08:26:36.685Z,87.02
2017-10-14T08:27:17.267Z,87.02
2017-10-14T08:27:57.687Z,87.12
2017-10-14T08:28:38.250Z,87.31
2017-10-14T08:29:18.812Z,86.93
2017-10-14T08:29:59.432Z,86.93
2017-10-14T08:30:39.837Z,85.97
2017-10-14T08:31:20.302Z,86.45
2017-10-14T08:32:00.792Z,86.35
2017-10-14T08:32:41.360Z,86.4
2017-10-14T08:33:21.795Z,86.4
2017-10-14T08:34:02.285Z,86.35
2017-10-14T08:34:42.672Z,86.07
2017-10-14T08:35:23.193Z,85.49
2017-10-14T08:36:03.659Z,86.25
2017-10-14T08:36:44.104Z,85.88
2017-10-14T08:37:24.555Z,86.45
2017-10-14T08:38:05.270Z,86.25
2017-10-14T08:38:45.741Z,85.92
2017-10-14T08:39:26.234Z,85.53
2017-10-14T08:40:06.653Z,85.34
2017-10-14T08:40:47.108Z,84.91
2017-10-14T08:41:27.675Z,83.85
2017-10-14T08:42:08.132Z,83.94
2017-10-14T08:42:48.746Z,83.18
2017-10-14T08:43:29.110Z,83.27
2017-10-14T08:44:09.517Z,83.27
2017-10-14T08:44:50.005Z,83.22
2017-10-14T08:45:30.533Z,82.84
2017-10-14T08:46:10.992Z,82.74
2017-10-14T08:46:51.448Z,82.54
2017-10-14T08:47:31.903Z,82.45
2017-10-14T08:48:12.518Z,83.08
2017-10-14T08:48:52.931Z,83.51
2017-10-14T08:49:33.424Z,83.08
2017-10-14T08:50:14.019Z,83.41
2017-10-14T08:50:54.513Z,82.84
2017-10-14T08:51:34.975Z,82.01
2017-10-14T08:52:15.523Z,81.72
2017-10-14T08:52:56.073Z,81.34
2017-10-14T08:53:36.527Z,81.49
2017-10-14T08:54:17.047Z,81.43
2017-10-14T08:54:57.531Z,80.86
2017-10-14T08:55:38.000Z,80.86
2017-10-14T08:56:18.462Z,80.51
2017-10-14T08:56:58.989Z,80.86
2017-10-14T08:57:39.454Z,80.76
2017-10-14T08:58:19.906Z,80.61
2017-10-14T08:59:00.355Z,80.57